createdAt,value
2019-05-22T00:00:26.030Z,11.50
2019-05-22T00:03:17.879Z,11.07
2019-05-22T00:05:50.345Z,10.73
2019-05-22T00:08:22.372Z,11.70
2019-05-22T00:10:55.162Z,11.20
2019-05-22T00:13:30.687Z,11.70
2019-05-22T00:16:04.269Z,12.20
2019-05-22T00:18:37.571Z,11.80
2019-05-22T00:21:12.794Z,11.73
2019-05-22T00:23:46.950Z,10.80
2019-05-22T00:26:20.166Z,11.80
2019-05-22T00:28:54.470Z,11.53
2019-05-22T00:31:26.309Z,11.77
2019-05-22T00:34:00.390Z,11.97
2019-05-22T00:36:33.940Z,12.50
2019-05-22T00:39:08.347Z,12.67
2019-05-22T00:41:40.289Z,12.93
2019-05-22T00:44:14.180Z,13.30
2019-05-22T00:46:45.821Z,12.60
2019-05-22T00:49:18.342Z,12.93
2019-05-22T00:52:04.724Z,13.87
2019-05-22T00:54:55.731Z,13.70
2019-05-22T00:57:29.887Z,13.47
2019-05-22T01:00:19.415Z,13.70
2019-05-22T01:02:54.835Z,13.60
2019-05-22T01:05:29.703Z,14.43
2019-05-22T01:08:03.376Z,14.43
2019-05-22T01:10:38.097Z,15.03
2019-05-22T01:13:10.260Z,15.00
2019-05-22T01:15:42.119Z,15.50
2019-05-22T01:18:15.496Z,15.60
2019-05-22T01:20:49.868Z,14.93
2019-05-22T01:23:24.216Z,16.17
2019-05-22T01:25:55.988Z,17.00
2019-05-22T01:28:28.486Z,17.50
2019-05-22T01:31:03.371Z,17.70
2019-05-22T01:33:39.509Z,14.30
2019-05-22T01:36:22.026Z,18.37
2019-05-22T01:38:58.753Z,17.73
2019-05-22T01:41:33.122Z,17.30
2019-05-22T01:44:07.277Z,17.60
2019-05-22T01:46:43.758Z,17.27
2019-05-22T01:49:16.878Z,16.93
2019-05-22T01:51:48.529Z,17.33
2019-05-22T01:54:22.375Z,17.87
2019-05-22T01:56:55.945Z,17.43
2019-05-22T01:59:28.260Z,17.97
2019-05-22T02:02:00.583Z,17.97
2019-05-22T02:04:34.546Z,16.97
2019-05-22T02:07:08.507Z,18.20
2019-05-22T02:09:44.509Z,17.57
2019-05-22T02:12:30.994Z,18.40
2019-05-22T02:15:03.213Z,17.80
2019-05-22T02:17:37.590Z,17.80
2019-05-22T02:20:11.434Z,18.37
2019-05-22T02:22:44.801Z,17.03
2019-05-22T02:25:17.781Z,16.90
2019-05-22T02:27:51.005Z,17.00
2019-05-22T02:30:25.021Z,17.17
2019-05-22T02:32:57.611Z,17.23
2019-05-22T02:35:31.208Z,17.87
2019-05-22T02:38:04.514Z,18.53
2019-05-22T02:40:39.222Z,18.37
2019-05-22T02:43:14.248Z,17.43
2019-05-22T02:45:46.903Z,16.33
2019-05-22T02:48:18.842Z,17.77
2019-05-22T02:50:52.677Z,18.10
2019-05-22T02:53:25.522Z,17.73
2019-05-22T02:55:57.621Z,19.30
2019-05-22T02:58:31.483Z,19.77
2019-05-22T03:01:06.725Z,18.43
2019-05-22T03:03:39.330Z,16.87
2019-05-22T03:06:14.487Z,17.33
2019-05-22T03:09:12.211Z,19.17
2019-05-22T03:12:01.634Z,15.37
2019-05-22T03:14:36.106Z,17.83
2019-05-22T03:17:13.014Z,18.33
2019-05-22T03:19:48.464Z,15.70
2019-05-22T03:22:40.966Z,16.67
2019-05-22T03:25:16.000Z,16.67
2019-05-22T03:27:54.417Z,14.67
2019-05-22T03:30:34.859Z,14.13
2019-05-22T03:33:08.367Z,13.90
2019-05-22T03:35:47.774Z,13.30
2019-05-22T03:38:21.614Z,12.33
2019-05-22T03:40:54.959Z,11.73
2019-05-22T03:43:29.720Z,13.03
2019-05-22T03:46:25.168Z,12.67
2019-05-22T03:48:58.720Z,10.93
2019-05-22T03:51:31.382Z,11.20
2019-05-22T03:54:04.568Z,10.30
2019-05-22T03:56:41.337Z,9.83
2019-05-22T03:59:13.832Z,9.90
2019-05-22T04:01:45.961Z,9.83
2019-05-22T04:04:34.171Z,9.00
2019-05-22T04:07:11.931Z,9.53
2019-05-22T04:09:46.444Z,8.67
2019-05-22T04:12:23.976Z,9.10
2019-05-22T04:14:55.865Z,9.50
2019-05-22T04:17:28.927Z,9.63
2019-05-22T04:20:01.148Z,9.77
2019-05-22T04:22:33.671Z,10.33
2019-05-22T04:25:09.004Z,8.90
2019-05-22T04:27:42.598Z,8.73
2019-05-22T04:30:15.945Z,8.13
2019-05-22T04:32:49.131Z,9.43
2019-05-22T04:35:24.469Z,9.47
2019-05-22T04:37:57.055Z,7.57
2019-05-22T04:40:42.676Z,7.40
2019-05-22T04:43:14.797Z,8.73
2019-05-22T04:45:48.998Z,8.47
2019-05-22T04:48:22.868Z,8.70
2019-05-22T04:50:54.970Z,8.10
2019-05-22T04:53:29.097Z,7.83
2019-05-22T04:56:02.212Z,8.10
2019-05-22T04:58:34.562Z,7.50
2019-05-22T05:01:06.498Z,8.27
2019-05-22T05:03:38.919Z,8.67
2019-05-22T05:06:11.895Z,8.20
2019-05-22T05:08:44.618Z,8.47
2019-05-22T05:11:17.565Z,8.17
2019-05-22T05:13:49.556Z,8.70
2019-05-22T05:16:21.460Z,9.17
2019-05-22T05:18:53.854Z,9.60
2019-05-22T05:21:26.066Z,9.97
2019-05-22T05:23:58.563Z,10.97
2019-05-22T05:26:31.834Z,11.20
2019-05-22T05:29:04.757Z,10.77
2019-05-22T05:31:36.802Z,11.37
2019-05-22T05:34:24.959Z,11.80
2019-05-22T05:36:57.808Z,12.17
2019-05-22T05:39:40.456Z,10.97
2019-05-22T05:42:12.674Z,11.60
2019-05-22T05:44:44.530Z,11.10
2019-05-22T05:47:21.890Z,11.33
2019-05-22T05:49:54.899Z,11.90
2019-05-22T05:52:29.364Z,10.43
2019-05-22T05:55:02.945Z,11.73
2019-05-22T05:57:39.302Z,11.10
2019-05-22T06:00:34.225Z,12.10
2019-05-22T06:03:35.573Z,11.80
2019-05-22T06:06:27.461Z,13.37
2019-05-22T06:09:02.602Z,12.93
2019-05-22T06:11:51.552Z,14.47
2019-05-22T06:14:33.737Z,14.13
2019-05-22T06:17:44.453Z,16.93
2019-05-22T06:20:19.679Z,18.33
2019-05-22T06:23:32.310Z,17.13
2019-05-22T06:26:04.900Z,16.83
2019-05-22T06:28:38.766Z,16.87
2019-05-22T06:31:31.340Z,16.27
2019-05-22T06:34:05.422Z,15.90
2019-05-22T06:36:37.631Z,17.57
2019-05-22T06:39:10.433Z,20.03
2019-05-22T06:41:44.095Z,19.13
2019-05-22T06:44:35.184Z,19.30
2019-05-22T06:47:09.880Z,19.43
2019-05-22T06:49:44.065Z,20.03
2019-05-22T06:52:18.108Z,20.17
2019-05-22T06:54:49.949Z,21.13
2019-05-22T06:57:23.769Z,23.53
2019-05-22T07:00:12.377Z,21.10
2019-05-22T07:02:32.576Z,14.17
2019-05-22T07:05:06.429Z,21.87
2019-05-22T07:07:39.106Z,16.93
2019-05-22T07:10:12.709Z,23.03
2019-05-22T07:12:44.656Z,21.03
2019-05-22T07:15:26.885Z,20.33
2019-05-22T07:17:59.086Z,22.63
2019-05-22T07:20:34.597Z,21.87
2019-05-22T07:23:07.191Z,24.60
2019-05-22T07:25:41.356Z,22.60
2019-05-22T07:28:15.905Z,21.90
2019-05-22T07:30:49.559Z,22.03
2019-05-22T07:33:23.420Z,21.70
2019-05-22T07:36:17.006Z,23.07
2019-05-22T07:38:33.682Z,22.47
2019-05-22T07:41:06.057Z,24.40
2019-05-22T07:43:41.341Z,23.63
2019-05-22T07:46:11.684Z,21.63
2019-05-22T07:48:44.491Z,21.50
2019-05-22T07:51:19.523Z,21.47
2019-05-22T07:53:53.943Z,21.80
2019-05-22T07:56:30.189Z,23.10
2019-05-22T07:59:03.187Z,23.83
2019-05-22T08:01:35.802Z,24.13
2019-05-22T08:04:08.206Z,22.33
2019-05-22T08:06:41.336Z,22.30
2019-05-22T08:09:14.499Z,22.57
2019-05-22T08:11:47.468Z,23.57
2019-05-22T08:14:19.672Z,21.57
2019-05-22T08:16:52.859Z,21.37
2019-05-22T08:19:27.175Z,21.77
2019-05-22T08:22:07.422Z,22.50
2019-05-22T08:24:34.271Z,21.23
2019-05-22T08:27:08.320Z,22.73
2019-05-22T08:29:49.785Z,22.47
2019-05-22T08:32:27.406Z,21.43
2019-05-22T08:35:00.300Z,20.90
2019-05-22T08:37:39.180Z,20.60
2019-05-22T08:40:15.223Z,21.63
2019-05-22T08:42:51.740Z,19.63
2019-05-22T08:45:25.150Z,20.90
2019-05-22T08:48:00.067Z,22.80
2019-05-22T08:50:35.191Z,23.50
2019-05-22T08:53:11.900Z,23.87
2019-05-22T08:55:45.284Z,24.57
2019-05-22T08:58:20.322Z,23.67
2019-05-22T09:00:53.863Z,24.57
2019-05-22T09:03:26.356Z,24.00
2019-05-22T09:05:57.915Z,23.57
2019-05-22T09:08:30.953Z,24.03
2019-05-22T09:11:04.198Z,24.77
2019-05-22T09:13:35.865Z,25.57
2019-05-22T09:16:08.714Z,25.17
2019-05-22T09:18:41.407Z,21.53
2019-05-22T09:21:14.060Z,23.97
2019-05-22T09:23:46.723Z,24.07
2019-05-22T09:26:18.827Z,24.90
2019-05-22T09:28:50.784Z,23.80
2019-05-22T09:31:23.095Z,22.30
2019-05-22T09:33:55.044Z,24.53
2019-05-22T09:36:27.248Z,21.53
2019-05-22T09:38:59.015Z,22.43
2019-05-22T09:41:32.099Z,21.80
2019-05-22T09:44:04.135Z,22.87
2019-05-22T09:46:36.002Z,23.10
2019-05-22T09:49:10.499Z,21.63
2019-05-22T09:51:43.183Z,21.70
2019-05-22T09:54:15.672Z,22.43
2019-05-22T09:56:47.413Z,19.23
2019-05-22T09:59:19.440Z,19.50
2019-05-22T10:01:51.712Z,19.37
2019-05-22T10:04:23.811Z,18.37
2019-05-22T10:06:55.797Z,18.50
2019-05-22T10:09:28.505Z,17.80
2019-05-22T10:12:03.052Z,17.97
2019-05-22T10:14:35.377Z,18.43
2019-05-22T10:17:07.801Z,16.93
2019-05-22T10:19:39.855Z,15.77
2019-05-22T10:22:12.840Z,18.87
2019-05-22T10:24:49.866Z,17.67
2019-05-22T10:27:19.737Z,17.00
2019-05-22T10:29:52.492Z,18.27
2019-05-22T10:32:25.079Z,16.73
2019-05-22T10:34:58.261Z,17.87
2019-05-22T10:37:30.181Z,16.87
2019-05-22T10:40:03.208Z,16.00
2019-05-22T10:42:35.044Z,16.17
2019-05-22T10:45:08.425Z,16.20
2019-05-22T10:47:40.590Z,15.60
2019-05-22T10:50:13.828Z,17.17
2019-05-22T10:52:45.468Z,14.83
2019-05-22T10:55:20.214Z,16.30
2019-05-22T10:57:52.085Z,17.17
2019-05-22T11:00:26.216Z,14.23
2019-05-22T11:02:58.959Z,15.17
2019-05-22T11:05:31.163Z,15.63
2019-05-22T11:08:03.544Z,14.83
2019-05-22T11:10:36.445Z,14.23
2019-05-22T11:13:08.548Z,14.90
2019-05-22T11:15:40.990Z,14.70
2019-05-22T11:18:13.865Z,14.30
2019-05-22T11:20:46.018Z,15.67
2019-05-22T11:23:18.079Z,14.90
2019-05-22T11:25:49.745Z,13.67
2019-05-22T11:28:22.148Z,13.40
2019-05-22T11:30:54.287Z,14.27
2019-05-22T11:33:26.077Z,13.57
2019-05-22T11:35:58.491Z,13.37
2019-05-22T11:38:30.353Z,14.67
2019-05-22T11:41:02.586Z,13.67
2019-05-22T11:43:35.120Z,13.10
2019-05-22T11:46:09.114Z,14.00
2019-05-22T11:48:40.761Z,14.03
2019-05-22T11:51:12.521Z,12.70
2019-05-22T11:53:44.437Z,13.30
2019-05-22T11:56:16.840Z,13.57
2019-05-22T11:58:49.542Z,14.23
2019-05-22T12:01:21.867Z,13.20
2019-05-22T12:03:53.901Z,13.73
2019-05-22T12:06:26.929Z,15.00
2019-05-22T12:08:59.600Z,13.73
2019-05-22T12:11:34.900Z,13.47
2019-05-22T12:14:09.244Z,13.60
2019-05-22T12:16:46.185Z,14.23
2019-05-22T12:19:17.828Z,13.37
2019-05-22T12:21:49.768Z,14.67
2019-05-22T12:24:28.400Z,14.37
2019-05-22T12:26:55.188Z,13.73
2019-05-22T12:29:28.162Z,13.63
2019-05-22T12:32:00.684Z,13.33
2019-05-22T12:34:32.544Z,15.47
2019-05-22T12:37:05.663Z,15.07
2019-05-22T12:39:40.058Z,14.83
2019-05-22T12:42:15.741Z,14.37
2019-05-22T12:44:48.146Z,13.10
2019-05-22T12:47:25.209Z,13.97
2019-05-22T12:49:59.371Z,14.23
2019-05-22T12:52:31.678Z,12.97
2019-05-22T12:55:09.035Z,14.90
2019-05-22T12:57:41.685Z,13.50
2019-05-22T13:00:14.751Z,13.67
2019-05-22T13:02:47.972Z,13.93
2019-05-22T13:05:20.066Z,14.90
2019-05-22T13:07:53.372Z,14.40
2019-05-22T13:10:27.298Z,13.37
2019-05-22T13:12:59.941Z,12.53
2019-05-22T13:15:33.792Z,12.77
2019-05-22T13:18:08.459Z,12.53
2019-05-22T13:20:45.027Z,11.87
2019-05-22T13:23:18.401Z,11.70
2019-05-22T13:25:50.635Z,11.87
2019-05-22T13:28:25.825Z,12.10
2019-05-22T13:30:58.530Z,12.07
2019-05-22T13:33:31.851Z,11.50
2019-05-22T13:36:05.089Z,10.13
2019-05-22T13:38:37.086Z,11.40
2019-05-22T13:41:10.040Z,11.20
2019-05-22T13:43:42.458Z,9.03
2019-05-22T13:46:15.732Z,9.63
2019-05-22T13:48:47.578Z,9.37
2019-05-22T13:51:20.930Z,9.67
2019-05-22T13:53:54.326Z,8.80
2019-05-22T13:56:27.370Z,9.33
2019-05-22T13:58:59.560Z,9.67
2019-05-22T14:01:32.045Z,9.43
2019-05-22T14:04:03.991Z,10.03
2019-05-22T14:06:37.245Z,9.63
2019-05-22T14:09:13.673Z,10.63
2019-05-22T14:11:47.015Z,9.47
2019-05-22T14:14:20.557Z,10.17
2019-05-22T14:16:53.823Z,10.60
2019-05-22T14:19:25.561Z,10.57
2019-05-22T14:21:57.716Z,10.53
2019-05-22T14:24:31.640Z,10.50
2019-05-22T14:27:06.066Z,9.63
2019-05-22T14:29:44.164Z,10.80
2019-05-22T14:32:17.153Z,9.37
2019-05-22T14:34:49.250Z,10.83
2019-05-22T14:37:22.088Z,11.07
2019-05-22T14:39:54.393Z,12.57
2019-05-22T14:42:30.165Z,12.80
2019-05-22T14:45:03.595Z,13.13
2019-05-22T14:47:41.723Z,13.67
2019-05-22T14:50:25.899Z,12.63
2019-05-22T14:52:55.575Z,13.03
2019-05-22T14:55:30.081Z,13.47
2019-05-22T14:58:07.234Z,12.00
2019-05-22T15:00:42.143Z,11.67
2019-05-22T15:03:18.003Z,10.80
2019-05-22T15:05:50.124Z,10.67
2019-05-22T15:08:24.452Z,11.23
2019-05-22T15:10:58.841Z,11.50
2019-05-22T15:13:30.862Z,10.67
2019-05-22T15:16:02.562Z,11.10
2019-05-22T15:18:37.817Z,10.50
2019-05-22T15:21:11.424Z,10.50
2019-05-22T15:23:44.970Z,9.63
2019-05-22T15:26:17.268Z,9.63
2019-05-22T15:28:49.096Z,9.10
2019-05-22T15:31:20.851Z,9.60
2019-05-22T15:33:52.960Z,10.57
2019-05-22T15:36:25.628Z,10.30
2019-05-22T15:38:59.830Z,9.17
2019-05-22T15:41:34.090Z,10.23
2019-05-22T15:44:06.960Z,10.87
2019-05-22T15:46:40.357Z,10.83
2019-05-22T15:49:15.505Z,10.57
2019-05-22T15:51:50.715Z,10.20
2019-05-22T15:54:25.527Z,10.43
2019-05-22T15:57:00.392Z,12.17
2019-05-22T15:59:35.827Z,11.73
2019-05-22T16:02:15.141Z,12.70
2019-05-22T16:04:48.868Z,12.83
2019-05-22T16:07:22.541Z,12.07
2019-05-22T16:09:54.361Z,11.60
2019-05-22T16:12:28.995Z,12.63
2019-05-22T16:15:02.394Z,12.40
2019-05-22T16:17:37.161Z,11.57
2019-05-22T16:20:11.475Z,11.90
2019-05-22T16:22:45.572Z,14.60
2019-05-22T16:25:18.843Z,13.63
2019-05-22T16:27:52.501Z,12.90
2019-05-22T16:30:26.383Z,12.40
2019-05-22T16:33:00.867Z,11.90
2019-05-22T16:35:33.054Z,11.33
2019-05-22T16:38:05.360Z,11.03
2019-05-22T16:40:39.893Z,11.80
2019-05-22T16:43:13.137Z,12.70
2019-05-22T16:45:46.366Z,22.33
2019-05-22T16:48:28.617Z,15.17
2019-05-22T16:50:53.948Z,13.17
2019-05-22T16:53:27.829Z,12.67
2019-05-22T16:56:00.948Z,14.57
2019-05-22T16:58:36.393Z,11.93
2019-05-22T17:01:10.211Z,13.70
2019-05-22T17:03:44.247Z,17.13
2019-05-22T17:06:16.890Z,12.47
2019-05-22T17:08:51.366Z,11.20
2019-05-22T17:11:23.397Z,12.00
2019-05-22T17:13:59.422Z,13.37
2019-05-22T17:16:33.789Z,13.43
2019-05-22T17:19:25.679Z,13.53
2019-05-22T17:21:43.401Z,11.63
2019-05-22T17:24:15.255Z,10.97
2019-05-22T17:26:48.105Z,14.27
2019-05-22T17:29:23.855Z,11.30
2019-05-22T17:31:56.302Z,11.20
2019-05-22T17:34:38.600Z,13.73
2019-05-22T17:37:14.528Z,9.40
2019-05-22T17:39:49.590Z,17.70
2019-05-22T17:42:25.139Z,9.93
2019-05-22T17:44:59.683Z,27.53
2019-05-22T17:47:32.494Z,8.60
2019-05-22T17:50:23.619Z,17.57
2019-05-22T17:52:42.658Z,21.77
2019-05-22T17:55:20.740Z,19.57
2019-05-22T17:57:52.742Z,15.20
2019-05-22T18:00:33.811Z,13.77
2019-05-22T18:03:09.628Z,9.90
2019-05-22T18:05:44.603Z,10.17
2019-05-22T18:08:18.203Z,7.50
2019-05-22T18:10:51.056Z,7.63
2019-05-22T18:13:24.888Z,7.47
2019-05-22T18:15:57.630Z,10.97
2019-05-22T18:18:30.246Z,8.73
2019-05-22T18:21:04.591Z,7.90
2019-05-22T18:23:36.530Z,5.97
2019-05-22T18:26:10.061Z,7.13
2019-05-22T18:28:42.114Z,6.20
2019-05-22T18:31:14.273Z,6.03
2019-05-22T18:33:49.732Z,5.90
2019-05-22T18:36:24.490Z,6.27
2019-05-22T18:38:56.713Z,6.90
2019-05-22T18:41:31.030Z,5.07
2019-05-22T18:44:03.007Z,7.27
2019-05-22T18:46:37.345Z,12.10
2019-05-22T18:49:09.334Z,6.47
2019-05-22T18:51:44.370Z,14.87
2019-05-22T18:54:19.192Z,7.40
2019-05-22T18:56:51.515Z,15.20
2019-05-22T18:59:24.060Z,24.13
2019-05-22T19:01:56.838Z,9.80
2019-05-22T19:04:31.297Z,7.20
2019-05-22T19:07:04.728Z,8.77
2019-05-22T19:09:38.637Z,14.37
2019-05-22T19:12:11.033Z,12.33
2019-05-22T19:14:44.417Z,11.57
2019-05-22T19:17:18.675Z,15.20
2019-05-22T19:19:51.698Z,9.73
2019-05-22T19:22:27.063Z,6.60
2019-05-22T19:24:59.122Z,6.47
2019-05-22T19:27:31.335Z,7.37
2019-05-22T19:30:05.794Z,8.13
2019-05-22T19:32:38.540Z,10.17
2019-05-22T19:35:11.287Z,6.17
2019-05-22T19:37:44.307Z,4.97
2019-05-22T19:40:17.786Z,13.97
2019-05-22T19:42:51.269Z,10.40
2019-05-22T19:45:25.076Z,5.50
2019-05-22T19:47:58.870Z,8.87
2019-05-22T19:50:33.346Z,5.77
2019-05-22T19:53:18.571Z,4.37
2019-05-22T19:55:48.001Z,4.53
2019-05-22T19:58:22.451Z,4.30
2019-05-22T20:00:56.385Z,5.03
2019-05-22T20:03:33.929Z,4.77
2019-05-22T20:06:09.511Z,3.47
2019-05-22T20:08:45.670Z,7.07
2019-05-22T20:11:18.926Z,4.17
2019-05-22T20:13:50.671Z,4.30
2019-05-22T20:16:22.418Z,3.77
2019-05-22T20:18:59.728Z,3.80
2019-05-22T20:21:39.634Z,4.07
2019-05-22T20:24:12.043Z,3.90
2019-05-22T20:26:46.002Z,4.70
2019-05-22T20:29:20.892Z,4.50
2019-05-22T20:31:52.994Z,3.60
2019-05-22T20:34:26.952Z,3.10
2019-05-22T20:37:05.189Z,3.50
2019-05-22T20:39:40.457Z,2.70
2019-05-22T20:42:13.346Z,3.10
2019-05-22T20:44:45.452Z,3.17
2019-05-22T20:47:20.907Z,5.70
2019-05-22T20:49:57.735Z,3.50
2019-05-22T20:52:32.114Z,7.53
2019-05-22T20:55:07.186Z,3.27
2019-05-22T20:57:43.841Z,4.50
2019-05-22T21:00:18.362Z,3.43
2019-05-22T21:02:55.114Z,2.90
2019-05-22T21:05:31.247Z,3.20
2019-05-22T21:08:10.602Z,3.83
2019-05-22T21:10:49.787Z,3.70
2019-05-22T21:13:21.800Z,3.27
2019-05-22T21:15:54.984Z,3.70
2019-05-22T21:18:30.843Z,3.27
2019-05-22T21:21:04.307Z,3.30
2019-05-22T21:23:38.219Z,4.63
2019-05-22T21:26:11.394Z,3.73
2019-05-22T21:28:43.579Z,3.57
2019-05-22T21:31:17.601Z,3.40
2019-05-22T21:33:51.180Z,4.20
2019-05-22T21:36:23.889Z,3.97
2019-05-22T21:38:56.588Z,4.67
2019-05-22T21:41:30.153Z,4.53
2019-05-22T21:44:02.183Z,4.10
2019-05-22T21:46:36.153Z,4.70
2019-05-22T21:49:09.147Z,4.63
2019-05-22T21:51:41.496Z,4.40
2019-05-22T21:54:13.878Z,4.33
2019-05-22T21:56:45.786Z,4.23
2019-05-22T21:59:18.309Z,3.87
2019-05-22T22:01:51.949Z,4.00
2019-05-22T22:04:30.360Z,3.80
2019-05-22T22:07:03.077Z,4.33
2019-05-22T22:09:35.753Z,4.27
2019-05-22T22:12:09.488Z,3.97
2019-05-22T22:14:41.697Z,3.60
2019-05-22T22:17:15.078Z,4.87
2019-05-22T22:19:47.274Z,4.97
2019-05-22T22:22:27.148Z,3.87
2019-05-22T22:24:59.054Z,4.70
2019-05-22T22:27:31.319Z,3.63
2019-05-22T22:30:05.668Z,4.40
2019-05-22T22:32:37.790Z,4.07
2019-05-22T22:35:13.387Z,4.03
2019-05-22T22:37:46.618Z,3.77
2019-05-22T22:40:23.916Z,4.37
2019-05-22T22:42:55.822Z,4.60
2019-05-22T22:45:39.126Z,5.07
2019-05-22T22:48:13.043Z,4.67
2019-05-22T22:50:46.597Z,4.67
2019-05-22T22:53:20.477Z,4.87
2019-05-22T22:55:53.493Z,5.10
2019-05-22T22:58:25.399Z,5.73
2019-05-22T23:00:58.898Z,6.13
2019-05-22T23:03:31.906Z,5.30
2019-05-22T23:06:06.675Z,5.33
2019-05-22T23:08:40.896Z,5.40
2019-05-22T23:11:15.835Z,5.93
2019-05-22T23:13:49.646Z,4.93
2019-05-22T23:16:23.900Z,5.80
2019-05-22T23:19:18.376Z,6.13
2019-05-22T23:21:49.034Z,6.27
2019-05-22T23:24:21.281Z,6.30
2019-05-22T23:26:54.299Z,5.83
2019-05-22T23:29:28.431Z,6.13
2019-05-22T23:32:00.817Z,5.30
2019-05-22T23:34:32.912Z,6.47
2019-05-22T23:37:06.161Z,6.57
2019-05-22T23:39:39.689Z,5.90
2019-05-22T23:42:16.420Z,6.03
2019-05-22T23:44:49.770Z,6.20
2019-05-22T23:47:21.854Z,6.00
2019-05-22T23:49:54.534Z,5.87
2019-05-22T23:52:26.919Z,6.17
2019-05-22T23:54:59.593Z,5.70
2019-05-22T23:57:32.208Z,6.07
